createdAt,value
2018-11-07T00:01:01.619Z,9.51
2018-11-07T00:03:30.118Z,9.50
2018-11-07T00:05:58.602Z,9.55
2018-11-07T00:08:27.140Z,9.47
2018-11-07T00:10:55.938Z,9.54
2018-11-07T00:13:24.428Z,9.58
2018-11-07T00:15:52.942Z,9.59
2018-11-07T00:18:21.433Z,9.62
2018-11-07T00:20:49.954Z,9.62
2018-11-07T00:23:18.478Z,9.71
2018-11-07T00:25:46.964Z,9.55
2018-11-07T00:28:15.450Z,9.54
2018-11-07T00:30:43.946Z,9.38
2018-11-07T00:33:12.432Z,9.32
2018-11-07T00:35:40.959Z,9.21
2018-11-07T00:38:09.750Z,9.12
2018-11-07T00:40:38.285Z,9.13
2018-11-07T00:45:59.763Z,9.11
2018-11-07T00:48:28.296Z,9.11
2018-11-07T00:50:56.800Z,9.11
2018-11-07T00:53:25.322Z,9.12
2018-11-07T00:55:53.800Z,9.09
2018-11-07T00:58:22.271Z,9.09
2018-11-07T01:00:50.759Z,8.95
2018-11-07T01:03:19.258Z,8.97
2018-11-07T01:05:47.779Z,8.92
2018-11-07T01:08:16.288Z,8.94
2018-11-07T01:10:44.790Z,8.82
2018-11-07T01:13:14.134Z,8.91
2018-11-07T01:15:42.667Z,8.85
2018-11-07T01:18:11.325Z,8.93
2018-11-07T01:20:39.823Z,8.90
2018-11-07T01:23:08.339Z,8.97
2018-11-07T01:25:36.825Z,8.94
2018-11-07T01:28:05.647Z,8.96
2018-11-07T01:30:34.099Z,8.97
2018-11-07T01:33:02.615Z,8.88
2018-11-07T01:35:31.466Z,8.92
2018-11-07T01:37:59.964Z,8.89
2018-11-07T01:40:28.463Z,8.96
2018-11-07T01:42:56.979Z,8.92
2018-11-07T01:45:25.463Z,8.87
2018-11-07T01:47:54.408Z,8.88
2018-11-07T01:50:22.912Z,8.88
2018-11-07T01:52:51.415Z,8.84
2018-11-07T01:55:19.954Z,8.81
2018-11-07T01:57:48.462Z,8.73
2018-11-07T02:00:16.957Z,8.77
2018-11-07T02:02:45.469Z,8.69
2018-11-07T02:05:14.422Z,8.74
2018-11-07T02:07:43.430Z,8.66
2018-11-07T02:10:12.190Z,8.71
2018-11-07T02:12:41.559Z,8.67
2018-11-07T02:15:10.758Z,8.69
2018-11-07T02:17:39.305Z,8.62
2018-11-07T02:20:09.170Z,8.53
2018-11-07T02:22:37.703Z,8.49
2018-11-07T02:25:06.601Z,8.41
2018-11-07T02:27:35.109Z,8.47
2018-11-07T02:30:03.715Z,8.45
2018-11-07T02:32:32.207Z,8.50
2018-11-07T02:35:00.718Z,8.45
2018-11-07T02:37:29.218Z,8.44
2018-11-07T02:39:57.737Z,8.52
2018-11-07T02:42:26.237Z,8.49
2018-11-07T02:44:54.737Z,8.45
2018-11-07T02:47:23.227Z,8.43
2018-11-07T02:49:51.748Z,8.39
2018-11-07T02:52:20.322Z,8.45
2018-11-07T02:54:48.830Z,8.44
2018-11-07T02:57:17.551Z,8.41
2018-11-07T02:59:46.052Z,8.32
2018-11-07T03:02:15.393Z,8.32
2018-11-07T03:04:43.922Z,8.30
2018-11-07T03:07:12.398Z,8.26
2018-11-07T03:09:40.879Z,8.31
2018-11-07T03:12:09.379Z,8.27
2018-11-07T03:14:37.903Z,8.25
2018-11-07T03:17:06.582Z,8.25
2018-11-07T03:19:35.092Z,8.10
2018-11-07T03:22:03.623Z,8.16
2018-11-07T03:24:32.160Z,8.12
2018-11-07T03:27:00.662Z,8.10
2018-11-07T03:29:29.558Z,8.12
2018-11-07T03:31:58.150Z,8.15
2018-11-07T03:34:26.646Z,8.05
2018-11-07T03:37:04.967Z,8.11
2018-11-07T03:39:38.853Z,7.97
2018-11-07T03:42:07.338Z,7.95
2018-11-07T03:44:35.951Z,7.98
2018-11-07T03:47:16.474Z,7.96
2018-11-07T03:49:55.962Z,7.89
2018-11-07T03:52:36.291Z,7.87
2018-11-07T03:55:15.946Z,7.85
2018-11-07T03:57:54.951Z,7.86
2018-11-07T04:00:25.043Z,7.89
2018-11-07T04:03:03.736Z,7.83
2018-11-07T04:05:32.266Z,7.78
2018-11-07T04:08:00.765Z,7.78
2018-11-07T04:10:29.279Z,7.81
2018-11-07T04:13:08.170Z,7.77
2018-11-07T04:15:36.693Z,7.75
2018-11-07T04:18:05.291Z,7.76
2018-11-07T04:20:34.130Z,7.77
2018-11-07T04:23:02.944Z,7.79
2018-11-07T04:25:45.777Z,7.77
2018-11-07T04:28:24.882Z,7.79
2018-11-07T04:30:53.407Z,7.73
2018-11-07T04:33:21.911Z,7.74
2018-11-07T04:36:03.712Z,7.75
2018-11-07T04:38:47.687Z,7.70
2018-11-07T04:41:26.376Z,7.66
2018-11-07T04:44:05.819Z,7.66
2018-11-07T04:46:37.139Z,7.67
2018-11-07T04:49:16.129Z,7.57
2018-11-07T04:51:44.635Z,7.43
2018-11-07T04:54:13.131Z,7.37
2018-11-07T04:56:52.601Z,7.39
2018-11-07T04:59:21.128Z,7.38
2018-11-07T05:01:50.493Z,7.44
2018-11-07T05:04:18.980Z,7.42
2018-11-07T05:06:57.372Z,7.48
2018-11-07T05:09:38.884Z,7.38
2018-11-07T05:12:17.318Z,7.40
2018-11-07T05:14:50.216Z,7.31
2018-11-07T05:17:25.099Z,7.35
2018-11-07T05:19:53.605Z,7.36
2018-11-07T05:22:22.083Z,7.34
2018-11-07T05:24:50.646Z,7.35
2018-11-07T05:27:19.158Z,7.43
2018-11-07T05:29:47.664Z,7.43
2018-11-07T05:32:16.165Z,7.36
2018-11-07T05:34:44.674Z,7.37
2018-11-07T05:37:13.191Z,7.33
2018-11-07T05:39:41.679Z,7.35
2018-11-07T05:42:10.178Z,7.35
2018-11-07T05:44:38.659Z,7.33
2018-11-07T05:47:07.263Z,7.37
2018-11-07T05:49:35.747Z,7.39
2018-11-07T05:52:04.278Z,7.42
2018-11-07T05:54:32.886Z,7.46
2018-11-07T05:57:01.450Z,7.42
2018-11-07T05:59:29.979Z,7.34
2018-11-07T06:01:58.513Z,7.29
2018-11-07T06:04:27.054Z,7.35
2018-11-07T06:06:55.564Z,7.29
2018-11-07T06:09:24.078Z,7.30
2018-11-07T06:11:52.604Z,7.36
2018-11-07T06:17:13.526Z,7.34
2018-11-07T06:19:42.012Z,7.39
2018-11-07T06:22:10.498Z,7.44
2018-11-07T06:24:39.043Z,7.39
2018-11-07T06:27:07.719Z,7.44
2018-11-07T06:29:36.243Z,7.38
2018-11-07T06:32:04.804Z,7.37
2018-11-07T06:34:33.312Z,7.37
2018-11-07T06:37:01.851Z,7.41
2018-11-07T06:39:30.379Z,7.39
2018-11-07T06:41:58.870Z,7.38
2018-11-07T06:44:27.418Z,7.41
2018-11-07T06:46:55.877Z,7.38
2018-11-07T06:49:24.407Z,7.39
2018-11-07T06:52:02.554Z,7.23
2018-11-07T06:54:31.074Z,7.33
2018-11-07T06:56:59.594Z,7.31
2018-11-07T06:59:28.101Z,7.42
2018-11-07T07:01:57.485Z,7.44
2018-11-07T07:04:25.979Z,7.47
2018-11-07T07:06:54.467Z,7.45
2018-11-07T07:09:22.967Z,7.52
2018-11-07T07:11:51.463Z,7.53
2018-11-07T07:14:19.961Z,7.62
2018-11-07T07:16:48.496Z,7.62
2018-11-07T07:19:17.079Z,7.55
2018-11-07T07:21:45.590Z,7.54
2018-11-07T07:24:14.134Z,7.56
2018-11-07T07:26:42.659Z,7.56
2018-11-07T07:29:11.250Z,7.60
2018-11-07T07:31:39.793Z,7.64
2018-11-07T07:34:08.426Z,7.66
2018-11-07T07:36:36.918Z,7.73
2018-11-07T07:39:08.169Z,7.78
2018-11-07T07:41:37.169Z,7.80
2018-11-07T07:44:06.577Z,7.76
2018-11-07T07:46:57.029Z,7.82
2018-11-07T07:49:25.640Z,7.80
2018-11-07T07:51:54.086Z,7.83
2018-11-07T07:54:22.592Z,7.97
2018-11-07T07:56:51.118Z,8.13
2018-11-07T07:59:19.607Z,8.22
2018-11-07T08:01:48.146Z,8.33
2018-11-07T08:04:17.014Z,8.48
2018-11-07T08:06:45.542Z,8.64
2018-11-07T08:09:14.481Z,8.86
2018-11-07T08:11:42.991Z,9.12
2018-11-07T08:14:11.475Z,9.23
2018-11-07T08:16:39.986Z,9.28
2018-11-07T08:19:09.522Z,9.63
2018-11-07T08:21:38.049Z,9.68
2018-11-07T08:24:06.567Z,10.02
2018-11-07T08:26:35.522Z,10.06
2018-11-07T08:29:05.203Z,10.23
2018-11-07T08:31:33.913Z,10.41
2018-11-07T08:34:03.482Z,10.53
2018-11-07T08:36:32.122Z,10.79
2018-11-07T08:39:00.690Z,11.02
2018-11-07T08:41:29.235Z,11.31
2018-11-07T08:43:57.738Z,11.63
2018-11-07T08:46:26.271Z,11.99
2018-11-07T08:48:54.775Z,12.25
2018-11-07T08:51:23.291Z,12.71
2018-11-07T08:53:51.815Z,12.82
2018-11-07T08:56:20.651Z,13.00
2018-11-07T08:58:49.220Z,13.21
2018-11-07T09:01:17.754Z,13.55
2018-11-07T09:03:46.247Z,13.88
2018-11-07T09:06:15.242Z,14.15
2018-11-07T09:08:43.818Z,14.20
2018-11-07T09:11:12.609Z,14.34
2018-11-07T09:13:41.102Z,14.44
2018-11-07T09:16:09.590Z,14.60
2018-11-07T09:18:38.126Z,14.75
2018-11-07T09:21:06.629Z,14.77
2018-11-07T09:23:35.150Z,15.02
2018-11-07T09:26:03.840Z,15.21
2018-11-07T09:28:32.351Z,15.54
2018-11-07T09:31:00.875Z,15.60
2018-11-07T09:33:29.372Z,15.49
2018-11-07T09:35:57.867Z,15.80
2018-11-07T09:38:26.371Z,15.82
2018-11-07T09:40:54.875Z,15.93
2018-11-07T09:43:23.397Z,16.23
2018-11-07T09:45:51.891Z,16.20
2018-11-07T09:48:20.528Z,16.39
2018-11-07T09:50:48.962Z,16.60
2018-11-07T09:53:17.510Z,16.75
2018-11-07T09:55:46.087Z,17.29
2018-11-07T09:58:14.635Z,17.23
2018-11-07T10:00:43.210Z,17.33
2018-11-07T10:03:11.715Z,17.69
2018-11-07T10:05:40.276Z,18.19
2018-11-07T10:08:08.764Z,18.21
2018-11-07T10:10:37.288Z,18.24
2018-11-07T10:13:05.867Z,18.71
2018-11-07T10:15:34.431Z,18.76
2018-11-07T10:18:03.136Z,18.19
2018-11-07T10:20:31.642Z,18.91
2018-11-07T10:23:00.156Z,19.07
2018-11-07T10:25:28.714Z,19.28
2018-11-07T10:27:57.621Z,19.36
2018-11-07T10:30:25.872Z,19.36
2018-11-07T10:32:54.343Z,19.68
2018-11-07T10:35:22.864Z,19.71
2018-11-07T10:37:51.439Z,19.75
2018-11-07T10:40:21.602Z,19.88
2018-11-07T10:42:50.149Z,19.96
2018-11-07T10:45:18.711Z,20.57
2018-11-07T10:47:47.989Z,19.92
2018-11-07T10:50:17.491Z,20.24
2018-11-07T10:52:46.484Z,20.63
2018-11-07T10:55:15.820Z,20.60
2018-11-07T10:57:44.394Z,20.44
2018-11-07T11:00:19.496Z,20.63
2018-11-07T11:02:52.997Z,20.55
2018-11-07T11:05:22.395Z,20.46
2018-11-07T11:07:51.023Z,20.34
2018-11-07T11:10:19.539Z,19.77
2018-11-07T11:12:48.166Z,20.14
2018-11-07T11:15:16.675Z,20.64
2018-11-07T11:17:45.178Z,20.87
2018-11-07T11:20:14.571Z,21.17
2018-11-07T11:22:43.192Z,20.86
2018-11-07T11:25:11.927Z,20.31
2018-11-07T11:27:40.448Z,20.97
2018-11-07T11:30:09.862Z,20.65
2018-11-07T11:32:38.621Z,20.63
2018-11-07T11:35:08.244Z,20.43
2018-11-07T11:37:37.078Z,20.04
2018-11-07T11:40:07.143Z,20.27
2018-11-07T11:42:35.668Z,19.96
2018-11-07T11:45:04.234Z,19.84
2018-11-07T11:47:32.763Z,19.71
2018-11-07T11:50:01.632Z,19.84
2018-11-07T11:52:30.147Z,19.75
2018-11-07T11:54:58.649Z,19.21
2018-11-07T11:57:27.236Z,19.12
2018-11-07T11:59:56.079Z,19.11
2018-11-07T12:02:24.367Z,19.10
2018-11-07T12:04:52.851Z,18.84
2018-11-07T12:07:21.365Z,18.81
2018-11-07T12:09:50.303Z,18.86
2018-11-07T12:15:11.188Z,18.71
2018-11-07T12:17:39.755Z,18.74
2018-11-07T12:20:08.653Z,18.89
2018-11-07T12:22:37.158Z,18.85
2018-11-07T12:25:07.177Z,18.81
2018-11-07T12:27:35.703Z,18.94
2018-11-07T12:30:04.855Z,19.13
2018-11-07T12:32:33.372Z,19.01
2018-11-07T12:35:01.919Z,18.84
2018-11-07T12:37:30.447Z,18.71
2018-11-07T12:39:58.984Z,18.69
2018-11-07T12:42:27.583Z,18.88
2018-11-07T12:44:56.111Z,18.76
2018-11-07T12:47:24.686Z,18.59
2018-11-07T12:49:53.328Z,18.53
2018-11-07T12:52:21.773Z,18.35
2018-11-07T12:54:50.286Z,18.46
2018-11-07T12:57:18.943Z,18.44
2018-11-07T12:59:47.358Z,18.33
2018-11-07T13:02:15.894Z,18.43
2018-11-07T13:04:44.486Z,18.32
2018-11-07T13:07:12.950Z,18.27
2018-11-07T13:09:41.811Z,18.39
2018-11-07T13:12:10.337Z,18.26
2018-11-07T13:14:38.983Z,18.32
2018-11-07T13:17:07.651Z,18.27
2018-11-07T13:19:36.168Z,18.20
2018-11-07T13:22:05.047Z,18.36
2018-11-07T13:24:33.619Z,18.26
2018-11-07T13:27:02.220Z,18.33
2018-11-07T13:29:30.754Z,18.35
2018-11-07T13:31:59.291Z,18.37
2018-11-07T13:34:27.860Z,18.33
2018-11-07T13:36:56.459Z,18.38
2018-11-07T13:39:24.858Z,18.27
2018-11-07T13:41:53.355Z,18.19
2018-11-07T13:44:21.896Z,18.11
2018-11-07T13:46:50.460Z,18.17
2018-11-07T13:49:18.955Z,18.20
2018-11-07T13:51:47.453Z,18.22
2018-11-07T13:54:16.399Z,18.09
2018-11-07T13:56:44.923Z,18.04
2018-11-07T13:59:13.523Z,17.97
2018-11-07T14:01:41.996Z,18.02
2018-11-07T14:04:10.492Z,17.95
2018-11-07T14:06:39.031Z,17.95
2018-11-07T14:09:10.190Z,17.91
2018-11-07T14:11:39.078Z,17.84
2018-11-07T14:14:08.690Z,17.82
2018-11-07T14:16:37.498Z,17.64
2018-11-07T14:19:07.840Z,17.62
2018-11-07T14:21:36.465Z,17.58
2018-11-07T14:24:06.712Z,17.47
2018-11-07T14:26:35.379Z,17.61
2018-11-07T14:29:05.883Z,17.55
2018-11-07T14:31:34.455Z,17.35
2018-11-07T14:34:05.827Z,17.39
2018-11-07T14:36:34.391Z,17.22
2018-11-07T14:39:04.310Z,17.09
2018-11-07T14:41:32.802Z,17.07
2018-11-07T14:44:01.497Z,16.90
2018-11-07T14:46:30.087Z,16.75
2018-11-07T14:48:58.591Z,16.82
2018-11-07T14:51:27.111Z,16.75
2018-11-07T14:53:55.676Z,16.72
2018-11-07T14:56:24.255Z,16.56
2018-11-07T14:58:53.179Z,16.58
2018-11-07T15:01:21.729Z,16.47
2018-11-07T15:03:50.231Z,16.32
2018-11-07T15:06:18.724Z,16.23
2018-11-07T15:08:47.278Z,16.12
2018-11-07T15:11:15.763Z,16.01
2018-11-07T15:13:44.295Z,15.99
2018-11-07T15:16:12.791Z,15.78
2018-11-07T15:18:41.301Z,15.55
2018-11-07T15:21:09.854Z,15.63
2018-11-07T15:23:38.379Z,15.58
2018-11-07T15:26:06.875Z,15.63
2018-11-07T15:28:35.444Z,15.72
2018-11-07T15:31:04.013Z,15.54
2018-11-07T15:33:32.691Z,15.39
2018-11-07T15:36:01.295Z,15.27
2018-11-07T15:38:29.771Z,15.22
2018-11-07T15:40:58.303Z,15.06
2018-11-07T15:43:27.026Z,15.07
2018-11-07T15:45:55.475Z,14.96
2018-11-07T15:48:23.975Z,14.81
2018-11-07T15:50:57.615Z,14.83
2018-11-07T15:53:26.101Z,14.91
2018-11-07T15:55:54.616Z,14.92
2018-11-07T15:58:23.171Z,14.84
2018-11-07T16:00:51.676Z,14.88
2018-11-07T16:03:25.435Z,14.85
2018-11-07T16:05:53.931Z,14.87
2018-11-07T16:08:22.507Z,14.86
2018-11-07T16:10:51.014Z,14.77
2018-11-07T16:13:19.574Z,14.68
2018-11-07T16:15:48.031Z,14.74
2018-11-07T16:18:16.912Z,14.74
2018-11-07T16:20:45.452Z,14.66
2018-11-07T16:23:13.992Z,14.64
2018-11-07T16:25:42.444Z,14.64
2018-11-07T16:28:10.946Z,14.55
2018-11-07T16:30:39.490Z,14.50
2018-11-07T16:33:08.036Z,14.55
2018-11-07T16:35:36.590Z,14.48
2018-11-07T16:38:05.253Z,14.51
2018-11-07T16:40:33.760Z,14.43
2018-11-07T16:43:02.412Z,14.38
2018-11-07T16:45:30.914Z,14.41
2018-11-07T16:47:59.451Z,14.38
2018-11-07T16:50:27.972Z,14.16
2018-11-07T16:52:56.463Z,13.88
2018-11-07T16:55:24.983Z,13.88
2018-11-07T16:57:53.498Z,13.88
2018-11-07T17:00:22.170Z,13.78
2018-11-07T17:02:50.964Z,13.71
2018-11-07T17:05:19.982Z,13.70
2018-11-07T17:07:48.877Z,13.66
2018-11-07T17:10:17.771Z,13.62
2018-11-07T17:12:46.269Z,13.66
2018-11-07T17:15:14.813Z,13.63
2018-11-07T17:17:43.436Z,13.54
2018-11-07T17:20:13.239Z,13.35
2018-11-07T17:22:42.138Z,13.20
2018-11-07T17:25:13.702Z,13.09
2018-11-07T17:27:43.011Z,13.10
2018-11-07T17:30:12.795Z,12.97
2018-11-07T17:32:41.319Z,13.00
2018-11-07T17:35:12.044Z,12.98
2018-11-07T17:37:40.853Z,12.90
2018-11-07T17:40:12.898Z,12.80
2018-11-07T17:42:41.410Z,12.79
2018-11-07T17:45:11.923Z,12.76
2018-11-07T17:47:41.130Z,12.69
2018-11-07T17:50:10.879Z,12.64
2018-11-07T17:52:39.927Z,12.59
2018-11-07T17:55:09.235Z,12.52
2018-11-07T17:57:37.752Z,12.38
2018-11-07T18:00:08.322Z,12.36
2018-11-07T18:02:36.830Z,12.28
2018-11-07T18:05:05.525Z,12.30
2018-11-07T18:07:34.083Z,12.35
2018-11-07T18:10:02.628Z,12.23
2018-11-07T18:12:31.159Z,12.23
2018-11-07T18:14:59.742Z,12.20
2018-11-07T18:17:28.398Z,12.16
2018-11-07T18:19:56.906Z,12.04
2018-11-07T18:22:25.436Z,11.82
2018-11-07T18:24:53.946Z,11.70
2018-11-07T18:27:22.895Z,11.68
2018-11-07T18:29:51.343Z,11.74
2018-11-07T18:32:19.858Z,11.69
2018-11-07T18:34:48.338Z,11.71
2018-11-07T18:37:16.875Z,11.67
2018-11-07T18:39:45.427Z,11.74
2018-11-07T18:42:14.037Z,11.67
2018-11-07T18:44:42.620Z,11.68
2018-11-07T18:47:11.861Z,11.65
2018-11-07T18:49:40.374Z,11.53
2018-11-07T18:52:09.029Z,11.50
2018-11-07T18:56:47.555Z,11.37
2018-11-07T18:59:16.087Z,11.37
2018-11-07T19:01:45.543Z,11.34
2018-11-07T19:04:14.343Z,11.33
2018-11-07T19:07:45.485Z,11.26
2018-11-07T19:10:17.919Z,11.32
2018-11-07T19:12:47.994Z,11.26
2018-11-07T19:15:18.314Z,11.31
2018-11-07T19:17:50.783Z,11.24
2018-11-07T19:20:21.805Z,11.12
2018-11-07T19:22:51.991Z,11.03
2018-11-07T19:25:22.391Z,11.03
2018-11-07T19:27:52.853Z,11.01
2018-11-07T19:30:23.254Z,10.96
2018-11-07T19:32:54.023Z,10.93
2018-11-07T19:35:23.834Z,10.92
2018-11-07T19:37:53.833Z,10.88
2018-11-07T19:40:26.378Z,10.80
2018-11-07T19:42:56.044Z,10.78
2018-11-07T19:45:26.815Z,10.74
2018-11-07T19:47:57.446Z,10.64
2018-11-07T19:50:27.934Z,10.63
2018-11-07T19:52:58.993Z,10.61
2018-11-07T19:55:28.913Z,10.55
2018-11-07T19:58:00.667Z,10.58
2018-11-07T20:00:30.389Z,10.52
2018-11-07T20:03:01.360Z,10.54
2018-11-07T20:05:33.857Z,10.52
2018-11-07T20:08:05.275Z,10.43
2018-11-07T20:10:37.099Z,10.37
2018-11-07T20:13:09.203Z,10.30
2018-11-07T20:15:40.252Z,10.38
2018-11-07T20:18:10.129Z,10.38
2018-11-07T20:20:40.044Z,10.28
2018-11-07T20:23:11.010Z,10.25
2018-11-07T20:25:41.075Z,10.27
2018-11-07T20:28:12.241Z,10.24
2018-11-07T20:30:42.347Z,10.25
2018-11-07T20:33:18.887Z,10.24
2018-11-07T20:35:52.329Z,10.27
2018-11-07T20:38:22.891Z,10.25
2018-11-07T20:40:56.120Z,10.21
2018-11-07T20:43:27.320Z,10.13
2018-11-07T20:45:57.325Z,10.04
2018-11-07T20:48:29.074Z,10.03
2018-11-07T20:51:04.122Z,10.02
2018-11-07T20:53:33.541Z,10.03
2018-11-07T20:56:06.398Z,9.94
2018-11-07T20:58:37.166Z,9.94
2018-11-07T21:01:09.357Z,9.89
2018-11-07T21:03:40.244Z,9.92
2018-11-07T21:06:10.182Z,9.91
2018-11-07T21:08:40.102Z,9.94
2018-11-07T21:11:11.158Z,9.87
2018-11-07T21:13:43.202Z,9.84
2018-11-07T21:16:13.354Z,9.86
2018-11-07T21:18:43.251Z,9.84
2018-11-07T21:21:13.179Z,9.80
2018-11-07T21:23:43.314Z,9.76
2018-11-07T21:26:15.114Z,9.71
2018-11-07T21:28:48.479Z,9.68
2018-11-07T21:31:19.175Z,9.69
2018-11-07T21:33:52.328Z,9.69
2018-11-07T21:36:23.235Z,9.72
2018-11-07T21:38:57.033Z,9.72
2018-11-07T21:41:33.134Z,9.67
2018-11-07T21:44:07.782Z,9.63
2018-11-07T21:46:37.496Z,9.63
2018-11-07T21:49:07.721Z,9.63
2018-11-07T21:51:37.502Z,9.69
2018-11-07T21:54:08.102Z,9.65
2018-11-07T21:56:38.864Z,9.55
2018-11-07T21:59:08.950Z,9.59
2018-11-07T22:01:40.365Z,9.55
2018-11-07T22:04:10.287Z,9.51
2018-11-07T22:06:40.504Z,9.49
2018-11-07T22:09:12.258Z,9.49
2018-11-07T22:11:41.975Z,9.42
2018-11-07T22:14:11.675Z,9.42
2018-11-07T22:16:45.349Z,9.43
2018-11-07T22:19:19.326Z,9.44
2018-11-07T22:21:50.547Z,9.41
2018-11-07T22:24:20.681Z,9.41
2018-11-07T22:26:50.547Z,9.41
2018-11-07T22:29:21.642Z,9.33
2018-11-07T22:31:53.036Z,9.35
2018-11-07T22:34:23.716Z,9.34
2018-11-07T22:36:53.642Z,9.37
2018-11-07T22:39:23.658Z,9.35
2018-11-07T22:41:54.734Z,9.31
2018-11-07T22:44:24.626Z,9.31
2018-11-07T22:46:56.053Z,9.34
2018-11-07T22:49:25.597Z,9.38
2018-11-07T22:51:56.699Z,9.43
2018-11-07T22:54:27.782Z,9.45
2018-11-07T22:56:59.899Z,9.36
2018-11-07T22:59:31.835Z,9.32
2018-11-07T23:02:03.489Z,9.23
2018-11-07T23:04:37.483Z,9.13
2018-11-07T23:07:07.755Z,9.05
2018-11-07T23:09:37.643Z,9.02
2018-11-07T23:12:08.785Z,9.00
2018-11-07T23:14:40.769Z,8.96
2018-11-07T23:17:11.014Z,8.99
2018-11-07T23:19:40.788Z,9.02
2018-11-07T23:22:11.822Z,9.00
2018-11-07T23:24:42.591Z,8.95
2018-11-07T23:27:12.852Z,8.89
2018-11-07T23:29:43.294Z,8.90
2018-11-07T23:32:13.659Z,8.94
2018-11-07T23:34:46.763Z,9.00
2018-11-07T23:37:17.677Z,9.00
2018-11-07T23:39:50.898Z,8.91
2018-11-07T23:42:20.735Z,8.90
2018-11-07T23:44:57.671Z,8.89
2018-11-07T23:47:27.979Z,8.84
2018-11-07T23:49:58.888Z,8.80
2018-11-07T23:52:34.137Z,8.73
2018-11-07T23:55:06.203Z,8.73
2018-11-07T23:57:38.019Z,8.68
